Terminal Aerodrome Forecast
Issued by NWS Shreveport, LA

Home | Current Version | Previous Version | Text Only | Print | Product List | Glossary On
Versions: 1 2 3 4 5 6 7 8 9 10 11 12 13 14 15 16
326
FTUS44 KSHV 240543
TAFELD
TAF
KELD 240543Z 2406/2506 17008KT P6SM SKC
     FM241100 18008KT P6SM BKN010
      TEMPO 2412/2415 OVC008
     FM241500 22009KT P6SM BKN008 OVC015
     FM242000 27010KT P6SM SCT030
     FM250000 32009KT P6SM SKC=

USA.gov is the U.S. government's official web portal to all federal, state and local government web resources and services.